Airfield :
LOGIN :

Register | Disclaimer

   EN    FR    IT 

 










Legend :    VFR   Marginal VFR   IFR   Intensive IFR   Very Intensive IFR
Visi :
Ceiling :
>= 8 km
>= 3000ft
5 to 8 km
1000 to 3000 ft
1500m to 5 km
500 to 1000 ft
800 to 1500m
200 to 500 ft
< 800m
< 200 ft
Symbols :   Thunderstorms  Fog  Heavy snow  Heavy precipitations  Wind > 20 kt
SIGMETs :     Misc.  Thunderstorms  Icing  Turbulence  Mountain Waves  Volcanic Ashes






- Airport Elevation : 659 ft
- IATA code : LYN


LFLY - Lyon Bron

CURRENT METAR :
  • 281930Z AUTO 34010KT CAVOK 18/01 Q1014 NOSIG

EXPIRED METARs :
  • 281900Z AUTO 34011KT CAVOK 19/01 Q1014 NOSIG
  • 281830Z AUTO 35012KT CAVOK 20/01 Q1014 NOSIG
  • 281800Z AUTO 34017KT CAVOK 20/00 Q1014 NOSIG
  • 281730Z AUTO 36016KT 330V030 CAVOK 21/00 Q1014 NOSIG
  • 281700Z AUTO 34018KT CAVOK 21/00 Q1014 NOSIG

TAF TAF LFLY
Valid from the 28 at 18:00 until the 29 at 18:00 UTC


281700Z 2818/2918 35018KT CAVOK
TEMPO 2900/2909 35008KT
ATIS : +33 4 72 15 87 96



MET'MAP, your aeronautical weather chart ! - Copyright ORBIFLY December 2007 - Disclaimer

ORBIFLY MET'MAP TEAM :

Programming & Development : Alexandra Zaïnal
Original concept : Baudouin d'Aumeries
Technical & hardware support : Manuel Goepfert
Assistance : Marc-Olivier Méhu

Contact : metmap@orbifly.com




SOURCES & CREDITS :

   NOAA